Time;durP1;ratioP1;P1;durP2;ratioP2;P2;SDS_P1;SDS_P2;PMS_P1;PMS_P2;Temp;Humidity;BMP_temperature;BMP_pressure;BME280_temperature;BME280_humidity;BME280_pressure;Samples;Min_cycle;Max_cycle;Signal;HPM_P1;HPM_P2
2021/06/02 00:00:13;;;;;;;5.50;5.15;;;11.70;99.90;;;12.66;67.40;97750.31;5224912;28;20200;-60
2021/06/02 00:02:48;;;;;;;5.63;5.22;;;11.60;99.90;;;12.62;68.31;97741.59;5234434;28;20218;-61
2021/06/02 00:05:24;;;;;;;5.43;5.03;;;11.60;99.90;;;12.58;68.35;97752.50;5236782;28;20220;-61
2021/06/02 00:07:59;;;;;;;6.25;5.65;;;11.60;99.90;;;12.56;69.16;97742.97;5218155;28;20220;-61
2021/06/02 00:10:31;;;;;;;5.60;5.25;;;11.60;99.90;;;12.51;68.40;97745.34;5232113;28;20193;-61
2021/06/02 00:13:04;;;;;;;5.68;5.25;;;11.50;99.90;;;12.46;68.38;97741.69;5230943;28;20212;-61
2021/06/02 00:15:37;;;;;;;5.75;5.25;;;11.40;99.90;;;12.36;68.19;97739.47;5236585;28;20721;-61
2021/06/02 00:18:12;;;;;;;6.03;5.40;;;11.30;99.90;;;12.24;68.84;97736.31;5220130;28;20224;-61
2021/06/02 00:20:46;;;;;;;6.47;6.00;;;11.30;99.90;;;12.20;70.39;97739.56;5227036;28;20193;-61
2021/06/02 00:23:19;;;;;;;6.82;6.22;;;11.30;99.90;;;12.20;69.33;97745.56;5239907;28;20192;-61
2021/06/02 00:25:52;;;;;;;5.90;5.50;;;11.30;99.90;;;12.16;69.28;97731.72;5234893;28;20193;-61
2021/06/02 00:28:24;;;;;;;5.88;5.47;;;11.20;99.90;;;12.18;69.02;97740.34;5230342;28;20222;-61
2021/06/02 00:30:57;;;;;;;6.67;6.10;;;11.20;99.90;;;12.04;69.23;97733.66;5233853;28;20204;-61
2021/06/02 00:33:32;;;;;;;6.27;5.77;;;11.00;99.90;;;12.00;69.31;97734.31;5216594;28;20739;-61
2021/06/02 00:36:08;;;;;;;6.30;5.80;;;11.10;99.90;;;11.98;69.59;97735.94;5212425;28;20201;-61
2021/06/02 00:38:40;;;;;;;5.97;5.47;;;11.10;99.90;;;12.01;68.86;97736.06;5223672;28;20213;-61
2021/06/02 00:41:13;;;;;;;5.38;4.85;;;11.10;99.90;;;12.00;68.99;97736.88;5231349;28;20200;-61
2021/06/02 00:43:47;;;;;;;6.25;5.75;;;11.00;99.90;;;11.94;69.57;97739.16;5221895;28;20202;-61
2021/06/02 00:46:22;;;;;;;6.50;5.90;;;11.00;99.90;;;11.96;70.35;97737.56;5225191;28;20692;-61
2021/06/02 00:48:55;;;;;;;6.63;6.03;;;11.00;99.90;;;12.03;69.85;97734.47;5219302;28;20684;-61
2021/06/02 00:51:30;;;;;;;6.20;5.70;;;11.00;99.90;;;11.88;69.73;97726.91;5235019;28;20199;-61
2021/06/02 00:54:03;;;;;;;6.00;5.57;;;10.90;99.90;;;11.86;69.86;97733.63;5233436;28;20214;-61
2021/06/02 00:56:45;;;;;;;6.23;5.73;;;10.80;99.90;;;11.79;69.64;97733.22;5239519;28;20395;-61
2021/06/02 00:59:22;;;;;;;6.23;5.83;;;10.80;99.90;;;11.76;69.28;97727.94;5223089;28;20213;-61
2021/06/02 01:01:55;;;;;;;6.10;5.60;;;10.70;99.90;;;11.72;70.15;97721.78;5237132;28;20657;-61
2021/06/02 01:04:29;;;;;;;5.63;5.23;;;10.70;99.90;;;11.67;70.21;97726.66;5227532;28;20193;-61
2021/06/02 01:07:05;;;;;;;6.77;6.27;;;10.70;99.90;;;11.69;70.17;97743.00;5238737;28;20857;-61
2021/06/02 01:09:46;;;;;;;5.75;5.35;;;10.80;99.90;;;11.68;70.38;97738.69;5240887;28;20231;-61
2021/06/02 01:12:21;;;;;;;5.97;5.57;;;10.70;99.90;;;11.71;70.07;97745.66;5225142;28;20213;-61
2021/06/02 01:14:56;;;;;;;6.43;6.00;;;10.80;99.90;;;11.66;69.90;97736.84;5226611;28;20202;-61
2021/06/02 01:17:31;;;;;;;6.90;6.40;;;10.80;99.90;;;11.62;69.74;97745.19;5224033;28;20189;-61
2021/06/02 01:20:07;;;;;;;6.07;5.57;;;10.70;99.90;;;11.51;69.82;97734.41;5222457;28;20224;-61
2021/06/02 01:22:41;;;;;;;6.20;5.80;;;10.60;99.90;;;11.46;70.15;97744.38;5238979;28;20652;-61
2021/06/02 01:25:15;;;;;;;6.10;5.60;;;10.60;99.90;;;11.45;69.34;97739.22;5232383;28;20200;-61
2021/06/02 01:27:48;;;;;;;5.97;5.47;;;10.50;99.90;;;11.48;70.51;97744.47;5239117;28;20265;-61
2021/06/02 01:30:23;;;;;;;5.87;5.37;;;10.60;99.90;;;11.48;69.90;97744.47;5227656;28;20216;-61
2021/06/02 01:33:32;;;;;;;5.70;5.27;;;10.60;99.90;;;11.48;70.61;97744.47;5234409;28;20218;-61
2021/06/02 01:36:10;;;;;;;6.33;5.73;;;10.50;99.90;;;11.42;70.27;97744.16;5224962;28;20201;-61
2021/06/02 01:39:24;;;;;;;6.90;6.13;;;10.50;99.90;;;11.43;70.45;97743.34;5228198;28;20220;-61
2021/06/02 01:42:29;;;;;;;6.43;6.03;;;10.40;99.90;;;11.34;70.18;97741.19;5232408;28;20676;-61
2021/06/02 01:45:39;;;;;;;5.97;5.57;;;10.30;99.90;;;11.22;71.04;97749.13;5237854;28;20205;-61
2021/06/02 01:48:43;;;;;;;6.57;6.00;;;10.20;99.90;;;11.12;71.59;97743.44;5244441;28;20235;-61
2021/06/02 01:52:13;;;;;;;5.63;5.17;;;10.10;99.90;;;11.09;72.35;97745.81;5230039;28;20219;-61
2021/06/02 01:55:28;;;;;;;6.70;6.20;;;10.10;99.90;;;10.98;71.64;97743.56;5224348;28;20192;-61
2021/06/02 01:58:38;;;;;;;6.73;6.10;;;10.00;99.90;;;10.91;72.42;97740.63;5166539;28;20546;-61
2021/06/02 02:01:28;;;;;;;6.27;5.83;;;9.90;99.90;;;10.91;71.86;97740.63;5228732;28;20193;-61
2021/06/02 02:04:31;;;;;;;6.43;5.93;;;9.90;99.90;;;10.93;72.19;97739.91;5230325;28;20201;-61
2021/06/02 02:07:23;;;;;;;6.53;5.93;;;10.00;99.90;;;10.81;72.07;97742.66;5234411;28;20214;-61
2021/06/02 02:10:23;;;;;;;5.83;5.43;;;9.90;99.90;;;10.83;72.94;97743.63;5224035;28;20193;-61
2021/06/02 02:13:11;;;;;;;5.93;5.43;;;9.90;99.90;;;10.76;72.99;97751.78;5232006;28;20672;-60
2021/06/02 02:16:07;;;;;;;6.53;5.93;;;9.90;99.90;;;10.77;72.98;97742.44;5235789;28;20193;-61
2021/06/02 02:18:49;;;;;;;6.87;6.33;;;9.90;99.90;;;10.70;72.66;97748.91;5227001;28;20216;-61
2021/06/02 02:21:42;;;;;;;6.93;6.43;;;9.80;99.90;;;10.63;72.44;97749.34;5236315;28;20201;-61
2021/06/02 02:24:29;;;;;;;5.87;5.47;;;9.80;99.90;;;10.72;72.14;97749.84;5221763;28;20200;-61
2021/06/02 02:27:22;;;;;;;6.37;5.87;;;9.80;99.90;;;10.76;72.56;97756.00;5221363;28;20197;-60
2021/06/02 02:29:59;;;;;;;6.67;6.17;;;9.90;99.90;;;10.75;73.81;97754.22;5240987;28;20582;-60
2021/06/02 02:32:53;;;;;;;6.40;5.80;;;9.90;99.90;;;10.70;72.64;97756.56;5230729;28;20518;-59
2021/06/02 02:35:35;;;;;;;6.67;6.00;;;9.90;99.90;;;10.69;72.57;97751.34;5215115;28;20197;-60
2021/06/02 02:38:25;;;;;;;6.73;6.27;;;9.80;99.90;;;10.63;74.54;97762.13;5246207;28;20243;-61
2021/06/02 02:41:10;;;;;;;6.87;6.27;;;9.80;99.90;;;10.74;74.44;97762.72;5227438;28;20201;-60
2021/06/02 02:43:59;;;;;;;6.37;5.83;;;9.90;99.90;;;10.68;72.40;97760.69;5242103;28;20195;-60
2021/06/02 02:46:39;;;;;;;6.20;5.60;;;9.80;99.90;;;10.66;73.06;97766.53;5220527;28;20200;-60
2021/06/02 02:49:23;;;;;;;6.00;5.47;;;9.70;99.90;;;10.62;73.52;97768.03;5234806;28;20221;-60
2021/06/02 02:52:11;;;;;;;5.63;5.23;;;9.70;99.90;;;10.58;71.74;97771.19;5224275;28;20197;-60
2021/06/02 02:54:57;;;;;;;6.37;5.80;;;9.60;99.90;;;10.53;72.71;97770.06;5222850;28;20297;-59
2021/06/02 02:57:39;;;;;;;6.50;6.00;;;9.50;99.90;;;10.47;72.83;97767.16;5236054;28;20198;-60
2021/06/02 03:00:17;;;;;;;5.80;5.40;;;9.60;99.90;;;10.42;73.21;97771.16;5242503;28;20196;-61
2021/06/02 03:02:57;;;;;;;5.73;5.33;;;9.50;99.90;;;10.37;71.83;97769.22;5231199;28;20189;-58
2021/06/02 03:05:33;;;;;;;6.17;5.63;;;9.40;99.90;;;10.28;72.01;97778.91;5225754;28;20190;-61
2021/06/02 03:08:13;;;;;;;5.60;5.20;;;9.30;99.90;;;10.25;73.21;97776.16;5241815;28;20564;-61
2021/06/02 03:11:02;;;;;;;5.87;5.47;;;9.20;99.90;;;10.15;72.84;97769.63;5228950;28;20566;-60
2021/06/02 03:13:44;;;;;;;5.60;5.20;;;9.20;99.90;;;10.13;72.69;97765.25;5230381;28;20248;-61
2021/06/02 03:16:24;;;;;;;5.40;5.10;;;9.10;99.90;;;10.06;73.11;97770.78;5233943;28;20197;-61
2021/06/02 03:19:07;;;;;;;6.17;5.67;;;9.10;99.90;;;9.93;73.62;97777.75;5214321;28;20213;-60
2021/06/02 03:21:59;;;;;;;6.07;5.47;;;9.00;99.90;;;9.93;74.54;97780.31;5240517;28;20569;-59
2021/06/02 03:24:53;;;;;;;6.20;5.80;;;9.00;99.90;;;10.02;74.65;97784.19;5242584;28;20666;-61
2021/06/02 03:27:33;;;;;;;5.87;5.47;;;9.10;99.90;;;9.95;74.29;97782.06;5234056;28;20204;-60
2021/06/02 03:30:20;;;;;;;5.73;5.30;;;9.10;99.90;;;9.93;73.46;97781.97;5216751;28;20812;-60
2021/06/02 03:33:26;;;;;;;5.60;5.20;;;9.00;99.90;;;9.85;74.02;97784.06;5225082;28;20754;-60
2021/06/02 03:36:15;;;;;;;5.90;5.50;;;8.90;99.90;;;9.83;73.98;97788.19;5227063;28;20193;-60
2021/06/02 03:39:03;;;;;;;6.63;6.13;;;8.90;99.90;;;9.84;74.18;97783.97;5228023;28;20216;-60
2021/06/02 03:41:58;;;;;;;7.23;6.60;;;8.90;99.90;;;9.88;75.95;97794.47;5242532;28;20204;-60
2021/06/02 03:45:00;;;;;;;6.80;6.30;;;9.00;99.90;;;9.84;75.45;97792.53;5241762;28;20195;-61
2021/06/02 03:47:46;;;;;;;6.87;6.27;;;9.00;99.90;;;9.88;75.46;97791.03;5232663;28;20615;-60
2021/06/02 03:50:25;;;;;;;6.70;6.20;;;9.00;99.90;;;9.88;74.56;97794.47;5232256;28;20571;-60
2021/06/02 03:53:08;;;;;;;7.33;6.70;;;9.00;99.90;;;9.92;76.80;97803.19;5237811;28;20231;-60
2021/06/02 03:55:49;;;;;;;6.60;6.10;;;9.10;99.90;;;9.92;75.71;97798.94;5211041;28;20197;-60
2021/06/02 03:58:39;;;;;;;6.73;6.13;;;9.20;99.90;;;9.93;75.36;97803.28;5228247;28;20300;-59
2021/06/02 04:01:23;;;;;;;6.93;6.43;;;9.20;99.90;;;9.93;75.68;97799.84;5225763;28;20201;-60
2021/06/02 04:04:05;;;;;;;7.10;6.50;;;9.10;99.90;;;9.93;74.46;97808.38;5225496;28;20197;-60
2021/06/02 04:06:49;;;;;;;6.77;6.27;;;9.00;99.90;;;9.93;75.76;97797.28;5224711;28;20222;-60
2021/06/02 04:09:25;;;;;;;7.23;6.63;;;9.10;99.90;;;10.00;75.17;97794.28;5224043;28;20218;-60
2021/06/02 04:12:19;;;;;;;7.80;7.10;;;9.20;99.90;;;10.07;75.86;97800.63;5224155;28;20201;-61
2021/06/02 04:14:56;;;;;;;6.73;6.20;;;9.30;99.90;;;10.13;74.63;97798.44;5219459;28;20352;-61
2021/06/02 04:17:30;;;;;;;7.23;6.73;;;9.30;99.90;;;10.13;74.64;97790.78;5218195;28;20198;-60
2021/06/02 04:20:06;;;;;;;7.10;6.50;;;9.30;99.90;;;10.17;74.95;97787.59;5222374;28;20219;-59
2021/06/02 04:22:42;;;;;;;6.23;5.83;;;9.30;99.90;;;10.14;73.92;97795.97;5230161;28;20215;-60
2021/06/02 04:25:16;;;;;;;6.53;6.00;;;9.30;99.90;;;10.31;73.37;97789.31;5247390;28;20188;-60
2021/06/02 04:27:49;;;;;;;6.10;5.60;;;9.30;99.90;;;10.27;73.68;97795.06;5234027;28;20215;-61
2021/06/02 04:30:25;;;;;;;6.67;6.10;;;9.30;99.90;;;10.24;74.84;97804.16;5241883;28;20203;-61
2021/06/02 04:33:00;;;;;;;6.13;5.73;;;9.30;99.90;;;10.31;74.42;97794.41;5223419;28;20231;-60
2021/06/02 04:35:33;;;;;;;6.90;6.30;;;9.40;99.90;;;10.35;74.59;97796.34;5235336;28;20195;-59
2021/06/02 04:38:07;;;;;;;7.60;6.33;;;9.40;99.90;;;10.47;74.17;97798.72;5230729;28;20217;-59
2021/06/02 04:40:40;;;;;;;6.40;5.80;;;9.60;99.90;;;10.62;72.92;97797.84;5237573;28;20196;-61
2021/06/02 04:43:14;;;;;;;5.90;5.30;;;9.60;99.90;;;11.03;70.64;97797.53;5249233;28;20192;-60
2021/06/02 04:45:55;;;;;;;6.20;5.67;;;9.90;99.90;;;10.99;72.11;97806.72;5241402;28;20573;-60
2021/06/02 04:48:29;;;;;;;6.87;6.37;;;10.00;99.90;;;11.14;71.57;97805.78;5238490;28;20213;-60
2021/06/02 04:51:14;;;;;;;6.30;5.80;;;10.10;99.90;;;11.46;69.85;97810.94;5230196;28;20193;-61
2021/06/02 04:54:31;;;;;;;5.97;5.43;;;10.30;99.90;;;12.04;68.66;97812.19;5237092;28;20209;-61
2021/06/02 04:57:47;;;;;;;6.10;5.50;;;10.90;99.90;;;13.05;66.00;97812.00;5224066;28;20197;-61
2021/06/02 05:00:44;;;;;;;6.23;5.73;;;11.90;99.90;;;14.18;62.04;97813.59;5221092;28;20201;-61
2021/06/02 05:04:35;;;;;;;6.03;5.55;;;12.90;99.90;;;15.17;57.40;97811.59;5230412;28;20193;-61
2021/06/02 05:08:11;;;;;;;6.50;5.07;;;13.60;99.90;;;16.02;54.92;97809.53;5240635;28;20201;-61
2021/06/02 05:11:47;;;;;;;6.78;6.07;;;14.30;99.90;;;16.72;52.61;97818.78;5205668;28;20215;-61
2021/06/02 05:15:14;;;;;;;6.07;5.68;;;14.80;99.20;;;17.39;50.32;97815.72;5245354;28;20707;-61
2021/06/02 05:18:07;;;;;;;5.88;5.38;;;15.30;97.60;;;17.71;50.32;97816.66;5233303;28;20209;-61
2021/06/02 05:25:07;;;;;;;6.05;5.45;;;16.00;96.70;;;18.60;47.63;97816.47;5244523;28;20233;-61
2021/06/02 05:28:44;;;;;;;6.20;5.70;;;16.40;95.70;;;19.09;46.49;97816.78;5223024;28;20217;-61
2021/06/02 05:32:08;;;;;;;6.20;5.35;;;16.60;95.70;;;19.23;46.15;97814.47;5231776;28;20226;-61
2021/06/02 05:35:36;;;;;;;6.57;5.55;;;16.70;95.50;;;19.57;44.83;97805.69;5236704;28;20583;-61
2021/06/02 05:39:04;;;;;;;6.10;5.60;;;16.90;94.60;;;19.82;44.53;97814.03;5222699;28;20217;-61
2021/06/02 05:41:54;;;;;;;5.65;5.15;;;17.10;94.30;;;20.04;44.49;97803.22;5222480;28;20201;-61
2021/06/02 05:45:06;;;;;;;5.70;5.20;;;17.40;94.10;;;20.25;43.78;97816.56;5226754;28;20195;-61
2021/06/02 05:48:50;;;;;;;7.10;6.47;;;17.60;93.70;;;20.52;43.38;97815.34;5220666;28;20593;-61
2021/06/02 05:51:51;;;;;;;6.13;5.63;;;17.90;93.00;;;20.71;42.74;97808.72;5195927;28;20201;-61
2021/06/02 05:55:07;;;;;;;5.47;4.95;;;17.90;92.80;;;21.04;43.16;97805.78;5228748;28;20586;-61
2021/06/02 05:58:29;;;;;;;5.43;5.03;;;18.20;93.20;;;21.31;40.86;97817.44;5221226;28;20213;-61
2021/06/02 06:01:50;;;;;;;5.13;4.72;;;18.60;91.10;;;21.88;39.90;97810.38;5220464;28;20654;-61
2021/06/02 06:05:03;;;;;;;4.93;4.53;;;19.00;90.80;;;21.96;40.34;97809.63;5225663;28;20692;-61
2021/06/02 06:08:53;;;;;;;5.15;4.65;;;19.20;90.60;;;22.23;39.28;97805.59;5220740;28;20245;-62
2021/06/02 06:12:06;;;;;;;5.72;4.30;;;19.30;89.50;;;22.51;38.77;97803.25;5211664;28;20216;-61
2021/06/02 06:15:50;;;;;;;4.60;4.20;;;19.50;90.00;;;23.16;36.98;97803.78;5234204;28;20217;-62
2021/06/02 06:18:48;;;;;;;4.65;4.22;;;19.80;87.80;;;23.51;36.87;97805.69;5179452;28;20218;-62
2021/06/02 06:22:08;;;;;;;4.35;3.95;;;20.20;87.70;;;23.85;35.60;97802.41;5220676;28;20207;-62
2021/06/02 06:24:48;;;;;;;4.70;4.40;;;20.60;84.50;;;24.23;34.74;97802.50;5228567;28;20197;-62
2021/06/02 06:27:31;;;;;;;4.82;4.43;;;21.00;83.40;;;24.38;34.62;97801.63;5236822;28;20200;-62
2021/06/02 06:30:10;;;;;;;4.72;4.32;;;20.90;82.90;;;24.45;34.62;97809.53;5211747;28;20211;-62
2021/06/02 06:32:46;;;;;;;4.60;4.20;;;21.10;82.80;;;24.53;33.63;97809.56;5225585;28;20212;-62
2021/06/02 06:35:22;;;;;;;4.20;3.90;;;21.00;81.00;;;24.76;34.17;97808.69;5221632;28;20704;-62
2021/06/02 06:37:57;;;;;;;4.85;3.90;;;21.60;81.70;;;25.49;32.62;97805.97;5221055;28;20224;-62
2021/06/02 06:40:31;;;;;;;4.72;4.03;;;22.10;78.80;;;25.40;32.91;97806.00;5231549;28;20694;-62
2021/06/02 06:43:06;;;;;;;3.97;3.67;;;22.30;78.10;;;25.91;32.31;97805.84;5226541;28;20193;-62
2021/06/02 06:45:43;;;;;;;4.97;4.45;;;22.80;77.80;;;25.60;32.78;97808.56;5240277;28;20660;-62
2021/06/02 06:48:21;;;;;;;4.32;3.90;;;22.90;77.80;;;25.91;32.29;97809.34;5221051;28;20221;-62
2021/06/02 06:50:56;;;;;;;4.43;4.03;;;23.20;75.80;;;26.59;30.18;97809.81;5229561;28;20200;-62
2021/06/02 06:53:30;;;;;;;4.18;3.75;;;23.30;73.80;;;26.57;30.90;97808.97;5221071;28;20217;-62
2021/06/02 06:56:05;;;;;;;3.97;3.67;;;23.60;74.50;;;27.02;29.50;97798.97;5215737;28;20740;-62
2021/06/02 06:58:39;;;;;;;4.82;4.18;;;24.00;72.10;;;27.11;30.14;97793.63;5218852;28;20216;-62
2021/06/02 07:01:15;;;;;;;3.17;2.97;;;24.00;73.20;;;27.24;28.69;97799.63;5223349;28;20200;-64
2021/06/02 07:03:55;;;;;;;3.65;2.90;;;24.20;69.50;;;27.41;27.92;97799.44;5241964;28;20236;-62
2021/06/02 07:06:28;;;;;;;3.72;3.38;;;24.20;67.80;;;27.60;27.63;97787.84;5247546;28;20184;-61
2021/06/02 07:09:02;;;;;;;3.80;3.50;;;24.40;67.40;;;28.08;27.02;97803.06;5236506;28;20230;-63
2021/06/02 07:11:39;;;;;;;3.40;3.10;;;25.10;66.80;;;28.10;27.06;97801.28;5222867;28;20186;-62
2021/06/02 07:14:18;;;;;;;3.88;3.08;;;25.40;65.30;;;28.05;26.73;97795.22;5231002;28;20224;-62
2021/06/02 07:16:54;;;;;;;3.50;3.20;;;25.30;65.60;;;28.31;26.87;97797.47;5223999;28;20490;-62
2021/06/02 07:19:28;;;;;;;3.60;3.30;;;25.60;65.60;;;28.35;26.96;97798.28;5216339;28;20648;-62
2021/06/02 07:22:02;;;;;;;4.05;3.28;;;25.60;66.20;;;28.42;26.81;97795.56;5233705;28;20660;-62
2021/06/02 07:24:35;;;;;;;3.15;2.88;;;25.70;64.20;;;28.28;25.04;97801.00;5229088;28;20184;-63
2021/06/02 07:27:08;;;;;;;3.08;2.78;;;25.40;61.10;;;28.52;26.36;97801.56;5241229;28;20196;-63
2021/06/02 07:29:40;;;;;;;4.72;2.67;;;25.70;63.70;;;28.82;25.07;97804.59;5236125;28;20209;-60
2021/06/02 07:32:14;;;;;;;3.13;2.92;;;26.10;61.70;;;28.55;24.33;97800.63;5227301;28;20208;-63
2021/06/02 07:34:47;;;;;;;3.08;2.80;;;26.30;59.60;;;28.74;24.62;97802.94;5235157;28;20216;-62
2021/06/02 07:37:20;;;;;;;3.17;2.45;;;26.30;59.00;;;29.05;24.98;97799.84;5229817;28;20201;-63
2021/06/02 07:39:53;;;;;;;3.25;2.67;;;26.30;59.80;;;29.56;24.20;97794.50;5224822;28;20195;-63
2021/06/02 07:42:26;;;;;;;3.15;2.83;;;26.60;59.50;;;29.47;24.09;97785.88;5233318;28;20573;-62
2021/06/02 07:44:59;;;;;;;3.20;2.90;;;26.60;59.00;;;30.19;22.68;97792.28;5238568;28;20562;-62
2021/06/02 07:47:33;;;;;;;3.17;2.70;;;27.00;57.80;;;29.74;24.22;97793.28;5224639;28;20221;-62
2021/06/02 07:50:07;;;;;;;3.00;2.80;;;26.70;59.60;;;29.70;24.42;97791.56;5215434;28;20276;-62
2021/06/02 07:52:39;;;;;;;3.33;2.47;;;26.70;60.70;;;30.19;23.29;97787.00;5228366;28;20192;-62
2021/06/02 07:55:13;;;;;;;4.20;3.00;;;27.00;58.30;;;30.48;23.27;97789.03;5224794;28;20246;-61
2021/06/02 07:57:45;;;;;;;2.53;2.33;;;27.30;58.40;;;31.09;23.04;97789.28;5228204;28;20218;-62
2021/06/02 08:00:20;;;;;;;2.97;2.75;;;27.20;59.20;;;31.11;22.51;97790.13;5226272;28;20480;-62
2021/06/02 08:02:54;;;;;;;3.03;2.70;;;27.40;58.70;;;31.38;21.93;97797.31;5225816;28;20203;-60
2021/06/02 08:05:27;;;;;;;3.22;2.70;;;28.10;57.10;;;31.30;22.01;97787.84;5219818;28;20197;-60
2021/06/02 08:07:59;;;;;;;3.88;2.70;;;28.30;57.00;;;31.69;21.38;97799.09;5225322;28;20213;-60
2021/06/02 08:10:32;;;;;;;3.30;2.83;;;28.10;56.50;;;31.73;21.15;97800.75;5220052;28;20201;-60
2021/06/02 08:13:04;;;;;;;2.72;2.50;;;28.00;56.60;;;31.78;21.92;97796.19;5221600;28;20197;-60
2021/06/02 08:15:37;;;;;;;2.55;2.15;;;27.90;57.90;;;31.49;20.30;97804.09;5233959;28;20223;-60
2021/06/02 08:18:11;;;;;;;3.35;2.65;;;28.10;54.60;;;30.95;21.65;97798.44;5245950;28;20226;-62
2021/06/02 08:20:43;;;;;;;2.40;2.30;;;28.10;55.80;;;30.93;21.47;97794.97;5227712;28;20201;-62
2021/06/02 08:23:16;;;;;;;3.33;2.35;;;28.30;54.30;;;30.65;21.82;97802.69;5226270;28;20590;-62
2021/06/02 08:25:50;;;;;;;2.60;2.40;;;28.40;54.80;;;30.14;22.64;97802.09;5227135;28;20583;-62
2021/06/02 08:28:23;;;;;;;2.70;2.50;;;27.90;55.20;;;29.97;21.14;97805.09;5226144;28;20844;-62
2021/06/02 08:30:55;;;;;;;2.80;2.60;;;27.50;52.60;;;30.24;22.87;97803.63;5236247;28;20192;-62
2021/06/02 08:33:31;;;;;;;3.20;2.53;;;27.70;56.20;;;29.77;22.30;97803.75;5240266;28;20227;-62
2021/06/02 08:36:05;;;;;;;2.60;2.20;;;27.80;54.90;;;30.00;20.92;97807.66;5232825;28;20227;-62
2021/06/02 08:38:38;;;;;;;3.30;2.60;;;27.80;52.50;;;30.04;21.27;97815.47;5237499;28;20589;-61
2021/06/02 08:41:10;;;;;;;2.53;2.40;;;27.90;53.30;;;30.09;22.02;97818.88;5235123;28;20278;-62
2021/06/02 08:43:44;;;;;;;3.47;2.35;;;28.20;53.80;;;30.19;22.63;97810.75;5226511;28;20215;-61
2021/06/02 08:46:18;;;;;;;2.80;2.60;;;28.10;54.60;;;30.08;22.53;97803.09;5224891;28;20197;-61
2021/06/02 08:48:56;;;;;;;2.63;2.42;;;28.20;54.30;;;29.99;22.78;97804.16;5218776;28;20219;-64
2021/06/02 08:51:29;;;;;;;3.25;2.70;;;28.10;54.10;;;30.07;21.92;97802.19;5228321;28;20601;-62
2021/06/02 08:54:02;;;;;;;2.50;2.30;;;27.90;53.50;;;29.84;21.79;97807.09;5227625;28;20208;-63
2021/06/02 08:56:41;;;;;;;2.63;2.42;;;28.10;53.30;;;29.89;22.29;97807.88;5234422;28;20200;-63
2021/06/02 08:59:15;;;;;;;3.67;2.63;;;28.20;53.50;;;29.76;21.30;97814.31;5239121;28;20212;-63
2021/06/02 09:01:49;;;;;;;3.08;2.47;;;28.20;52.20;;;29.62;22.18;97809.31;5241404;28;20203;-63
2021/06/02 09:04:23;;;;;;;3.58;2.20;;;28.30;52.30;;;29.44;21.36;97810.50;5245250;28;20207;-63
2021/06/02 09:06:57;;;;;;;2.53;2.33;;;28.20;51.30;;;29.37;20.46;97806.28;5232243;28;20572;-63
2021/06/02 09:09:30;;;;;;;2.80;2.33;;;27.90;50.10;;;29.08;20.51;97815.56;5240561;28;20216;-63
2021/06/02 09:12:08;;;;;;;2.25;2.10;;;27.70;49.30;;;28.82;19.83;97816.00;5220205;28;20204;-63
2021/06/02 09:14:43;;;;;;;2.13;1.92;;;27.50;48.70;;;28.86;19.99;97806.28;5235698;28;20224;-63
2021/06/02 09:17:15;;;;;;;2.50;2.20;;;27.50;48.80;;;28.93;20.27;97808.78;5237604;28;20214;-63
2021/06/02 09:19:50;;;;;;;2.20;1.83;;;27.80;49.50;;;29.04;20.46;97813.88;5247394;28;20202;-63
2021/06/02 09:22:24;;;;;;;2.22;2.13;;;28.10;48.70;;;28.91;20.38;97813.19;5248894;28;20205;-63
2021/06/02 09:24:59;;;;;;;2.80;2.20;;;27.90;48.40;;;28.89;22.09;97819.38;5237074;28;20216;-63
2021/06/02 09:27:48;;;;;;;2.70;1.90;;;27.80;51.10;;;28.88;21.13;97809.75;5234798;28;20626;-63
2021/06/02 09:30:25;;;;;;;2.20;1.98;;;27.90;49.30;;;28.91;21.47;97810.56;5229743;28;20249;-63
2021/06/02 09:33:00;;;;;;;2.30;2.20;;;27.90;49.50;;;29.03;20.43;97817.41;5226015;28;20212;-63
2021/06/02 09:35:39;;;;;;;2.25;1.90;;;27.90;48.50;;;29.16;18.90;97810.19;5233410;28;20216;-63
2021/06/02 09:38:24;;;;;;;1.98;1.85;;;28.10;47.00;;;29.26;18.61;97818.78;5226874;28;20848;-63
2021/06/02 09:40:58;;;;;;;1.95;1.80;;;28.20;45.40;;;29.17;17.73;97812.78;5231813;28;20236;-63
2021/06/02 09:43:32;;;;;;;2.33;2.13;;;28.10;44.30;;;28.97;18.56;97814.84;5232433;28;20193;-63
2021/06/02 09:46:06;;;;;;;2.10;2.00;;;28.10;45.30;;;28.92;18.48;97812.28;5243963;28;20198;-63
2021/06/02 09:48:41;;;;;;;2.00;1.90;;;27.90;46.20;;;28.77;19.34;97811.69;5246488;28;20226;-65
2021/06/02 09:51:35;;;;;;;2.45;2.10;;;27.70;47.10;;;28.65;21.96;97803.09;5241415;28;20234;-64
2021/06/02 09:54:09;;;;;;;2.90;2.00;;;27.70;50.40;;;28.77;20.26;97803.81;5239462;28;20200;-64
2021/06/02 09:56:44;;;;;;;1.92;1.83;;;28.00;48.30;;;28.93;19.08;97802.63;5226823;28;20193;-63
2021/06/02 09:59:18;;;;;;;2.50;2.10;;;28.00;46.10;;;28.96;19.04;97802.59;5244375;28;20700;-63
2021/06/02 10:01:54;;;;;;;4.18;2.00;;;28.00;45.70;;;28.82;17.48;97809.88;5238009;28;20198;-63
2021/06/02 10:04:30;;;;;;;2.20;2.00;;;27.70;44.30;;;28.40;19.84;97804.34;5238739;28;20192;-63
2021/06/02 10:07:17;;;;;;;2.38;2.08;;;27.40;47.00;;;28.13;19.67;97802.97;5232581;28;20356;-63
2021/06/02 10:09:49;;;;;;;2.10;2.00;;;27.30;46.90;;;28.13;19.98;97806.50;5238343;28;20192;-63
2021/06/02 10:12:22;;;;;;;2.10;2.00;;;27.20;47.20;;;28.11;21.22;97810.91;5234313;28;20661;-63
2021/06/02 10:14:56;;;;;;;2.55;2.00;;;27.20;49.30;;;27.97;21.04;97797.94;5231258;28;20225;-63
2021/06/02 10:17:31;;;;;;;2.03;1.92;;;27.00;48.50;;;27.90;22.44;97801.56;5227078;28;20200;-63
2021/06/02 10:20:10;;;;;;;2.63;2.33;;;27.10;49.30;;;28.11;20.74;97805.63;5233756;28;20208;-63
2021/06/02 10:22:52;;;;;;;2.35;2.10;;;27.20;48.10;;;28.19;19.89;97801.16;5231590;28;20207;-63
2021/06/02 10:25:28;;;;;;;1.88;1.77;;;27.20;46.20;;;28.25;19.80;97803.69;5228610;28;20687;-63
2021/06/02 10:28:00;;;;;;;2.03;1.92;;;27.40;46.70;;;28.34;19.33;97807.06;5233670;28;20224;-63
2021/06/02 10:30:36;;;;;;;2.75;1.77;;;27.50;45.30;;;28.37;18.93;97799.13;5222593;28;20661;-63
2021/06/02 10:33:08;;;;;;;1.98;1.80;;;27.40;45.20;;;28.16;19.91;97803.81;5224572;28;20213;-63
2021/06/02 10:35:41;;;;;;;2.00;1.90;;;27.30;46.40;;;28.08;20.65;97800.44;5218800;28;20216;-63
2021/06/02 10:38:17;;;;;;;2.05;1.90;;;27.30;47.70;;;28.08;20.14;97795.16;5220461;28;20224;-63
2021/06/02 10:40:51;;;;;;;1.90;1.80;;;27.20;46.90;;;28.14;20.16;97788.97;5227149;28;20198;-63
2021/06/02 10:43:27;;;;;;;2.35;2.13;;;27.40;46.40;;;28.16;20.63;97797.66;5226264;28;20644;-63
2021/06/02 10:46:03;;;;;;;2.95;1.77;;;27.40;47.00;;;28.14;19.41;97797.72;5227955;28;20492;-63
2021/06/02 10:48:40;;;;;;;2.17;1.92;;;27.20;44.90;;;28.12;19.20;97802.09;5227397;28;20231;-63
2021/06/02 10:51:25;;;;;;;2.30;2.10;;;27.20;45.10;;;28.02;19.42;97796.13;5226565;28;20202;-63
2021/06/02 10:54:07;;;;;;;2.92;2.30;;;27.20;45.30;;;27.88;19.25;97791.94;5230877;28;20945;-63
2021/06/02 10:56:42;;;;;;;2.10;2.00;;;27.10;45.70;;;27.85;19.58;97793.72;5237435;28;20224;-63
2021/06/02 10:59:27;;;;;;;2.33;2.05;;;27.10;45.70;;;27.67;19.32;97799.19;5233265;28;20212;-62
2021/06/02 11:02:04;;;;;;;2.20;2.00;;;26.80;45.40;;;27.60;19.77;97792.25;5245427;28;20226;-62
2021/06/02 11:04:39;;;;;;;2.15;2.05;;;26.70;45.90;;;27.53;19.85;97794.09;5213718;28;20555;-62
2021/06/02 11:07:17;;;;;;;2.03;1.92;;;26.60;46.10;;;27.60;19.26;97797.50;5229965;28;20195;-62
2021/06/02 11:10:00;;;;;;;2.22;1.92;;;26.70;45.50;;;27.62;19.71;97795.72;5222516;28;20631;-63
2021/06/02 11:13:01;;;;;;;3.45;2.05;;;26.80;45.80;;;27.69;19.62;97793.88;5226210;28;20199;-62
2021/06/02 11:15:45;;;;;;;2.40;2.20;;;26.80;45.80;;;27.57;19.73;97787.03;5221824;28;20223;-63
2021/06/02 11:18:21;;;;;;;2.03;1.92;;;26.80;45.20;;;27.71;17.90;97795.63;5225942;28;20218;-63
2021/06/02 11:20:58;;;;;;;2.00;1.90;;;26.80;43.10;;;27.64;18.47;97788.69;5225268;28;20328;-63
2021/06/02 11:23:33;;;;;;;2.10;1.95;;;26.80;43.70;;;27.57;18.72;97784.41;5225231;28;20207;-63
2021/06/02 11:26:24;;;;;;;2.00;1.90;;;26.80;44.40;;;27.52;20.03;97791.47;5222334;28;20250;-63
2021/06/02 11:28:57;;;;;;;1.80;1.70;;;26.70;46.10;;;27.45;18.16;97793.31;5221812;28;20248;-63
2021/06/02 11:31:31;;;;;;;2.20;2.10;;;26.70;43.70;;;27.37;18.35;97793.38;5220783;28;20215;-62